sensor_id;sensor_type;location;lat;lon;timestamp;temperature;humidity
20911;DHT22;10615;42.702;23.314;2022-10-31T00:00:25;14.40;65.80
20911;DHT22;10615;42.702;23.314;2022-10-31T00:01:28;14.40;66.00
20911;DHT22;10615;42.702;23.314;2022-10-31T00:02:29;14.40;66.10
20911;DHT22;10615;42.702;23.314;2022-10-31T00:03:30;14.40;66.10
20911;DHT22;10615;42.702;23.314;2022-10-31T00:04:31;14.40;66.30
20911;DHT22;10615;42.702;23.314;2022-10-31T00:05:31;14.30;66.30
20911;DHT22;10615;42.702;23.314;2022-10-31T00:06:32;14.30;66.30
20911;DHT22;10615;42.702;23.314;2022-10-31T00:07:32;14.30;66.40
20911;DHT22;10615;42.702;23.314;2022-10-31T00:08:33;14.30;66.50
20911;DHT22;10615;42.702;23.314;2022-10-31T00:09:34;14.30;66.60
20911;DHT22;10615;42.702;23.314;2022-10-31T00:10:38;14.30;66.70
20911;DHT22;10615;42.702;23.314;2022-10-31T00:11:39;14.30;66.80
20911;DHT22;10615;42.702;23.314;2022-10-31T00:12:39;14.30;66.90
20911;DHT22;10615;42.702;23.314;2022-10-31T00:13:40;14.30;66.90
20911;DHT22;10615;42.702;23.314;2022-10-31T00:14:41;14.30;66.90
20911;DHT22;10615;42.702;23.314;2022-10-31T00:15:41;14.30;66.80
20911;DHT22;10615;42.702;23.314;2022-10-31T00:16:42;14.30;66.90
20911;DHT22;10615;42.702;23.314;2022-10-31T00:17:42;14.30;66.90
20911;DHT22;10615;42.702;23.314;2022-10-31T00:18:43;14.30;66.90
20911;DHT22;10615;42.702;23.314;2022-10-31T00:19:44;14.30;67.20
20911;DHT22;10615;42.702;23.314;2022-10-31T00:20:45;14.20;67.10
20911;DHT22;10615;42.702;23.314;2022-10-31T00:21:45;14.30;67.20
20911;DHT22;10615;42.702;23.314;2022-10-31T00:22:46;14.30;67.20
20911;DHT22;10615;42.702;23.314;2022-10-31T00:23:47;14.30;67.20
20911;DHT22;10615;42.702;23.314;2022-10-31T00:24:47;14.30;67.30
20911;DHT22;10615;42.702;23.314;2022-10-31T00:25:48;14.20;67.30
20911;DHT22;10615;42.702;23.314;2022-10-31T00:28:09;14.20;67.50
20911;DHT22;10615;42.702;23.314;2022-10-31T00:29:11;14.20;67.60
20911;DHT22;10615;42.702;23.314;2022-10-31T00:30:13;14.20;67.60
20911;DHT22;10615;42.702;23.314;2022-10-31T00:31:14;14.20;67.70
20911;DHT22;10615;42.702;23.314;2022-10-31T00:32:14;14.20;67.80
20911;DHT22;10615;42.702;23.314;2022-10-31T00:33:15;14.20;67.80
20911;DHT22;10615;42.702;23.314;2022-10-31T00:34:16;14.10;67.80
20911;DHT22;10615;42.702;23.314;2022-10-31T00:35:16;14.20;67.90
20911;DHT22;10615;42.702;23.314;2022-10-31T00:36:18;14.20;68.00
20911;DHT22;10615;42.702;23.314;2022-10-31T00:37:19;14.20;68.10
20911;DHT22;10615;42.702;23.314;2022-10-31T00:38:20;14.20;68.10
20911;DHT22;10615;42.702;23.314;2022-10-31T00:39:20;14.20;68.10
20911;DHT22;10615;42.702;23.314;2022-10-31T00:40:21;14.20;68.00
20911;DHT22;10615;42.702;23.314;2022-10-31T00:41:22;14.20;68.10
20911;DHT22;10615;42.702;23.314;2022-10-31T00:42:22;14.20;68.10
20911;DHT22;10615;42.702;23.314;2022-10-31T00:43:23;14.20;68.10
20911;DHT22;10615;42.702;23.314;2022-10-31T00:44:24;14.20;68.10
20911;DHT22;10615;42.702;23.314;2022-10-31T00:45:24;14.20;68.10
20911;DHT22;10615;42.702;23.314;2022-10-31T00:46:25;14.20;68.00
20911;DHT22;10615;42.702;23.314;2022-10-31T00:47:25;14.20;68.00
20911;DHT22;10615;42.702;23.314;2022-10-31T00:48:26;14.20;68.00
20911;DHT22;10615;42.702;23.314;2022-10-31T00:49:27;14.20;68.10
20911;DHT22;10615;42.702;23.314;2022-10-31T00:50:27;14.20;68.20
20911;DHT22;10615;42.702;23.314;2022-10-31T00:51:28;14.20;68.30
20911;DHT22;10615;42.702;23.314;2022-10-31T00:52:29;14.20;69.00
20911;DHT22;10615;42.702;23.314;2022-10-31T00:53:29;14.10;68.50
20911;DHT22;10615;42.702;23.314;2022-10-31T00:54:30;14.20;68.70
20911;DHT22;10615;42.702;23.314;2022-10-31T00:55:31;14.20;68.80
20911;DHT22;10615;42.702;23.314;2022-10-31T00:56:31;14.20;68.80
20911;DHT22;10615;42.702;23.314;2022-10-31T00:57:32;14.20;68.80
20911;DHT22;10615;42.702;23.314;2022-10-31T00:58:33;14.20;68.80
20911;DHT22;10615;42.702;23.314;2022-10-31T00:59:33;14.20;68.80
20911;DHT22;10615;42.702;23.314;2022-10-31T01:00:34;14.20;68.80
20911;DHT22;10615;42.702;23.314;2022-10-31T01:01:35;14.20;68.90
20911;DHT22;10615;42.702;23.314;2022-10-31T01:02:35;14.20;69.00
20911;DHT22;10615;42.702;23.314;2022-10-31T01:03:36;14.20;68.80
20911;DHT22;10615;42.702;23.314;2022-10-31T01:04:38;14.20;68.70
20911;DHT22;10615;42.702;23.314;2022-10-31T01:05:39;14.20;68.80
20911;DHT22;10615;42.702;23.314;2022-10-31T01:06:40;14.20;68.80
20911;DHT22;10615;42.702;23.314;2022-10-31T01:07:41;14.20;68.80
20911;DHT22;10615;42.702;23.314;2022-10-31T01:08:42;14.20;68.90
20911;DHT22;10615;42.702;23.314;2022-10-31T01:09:43;14.20;68.90
20911;DHT22;10615;42.702;23.314;2022-10-31T01:10:44;14.20;68.90
20911;DHT22;10615;42.702;23.314;2022-10-31T01:11:44;14.20;68.80
20911;DHT22;10615;42.702;23.314;2022-10-31T01:12:46;14.20;68.90
20911;DHT22;10615;42.702;23.314;2022-10-31T01:13:50;14.20;68.90
20911;DHT22;10615;42.702;23.314;2022-10-31T01:14:50;14.20;69.10
20911;DHT22;10615;42.702;23.314;2022-10-31T01:15:55;14.20;69.10
20911;DHT22;10615;42.702;23.314;2022-10-31T01:16:56;14.20;69.00
20911;DHT22;10615;42.702;23.314;2022-10-31T01:17:57;14.20;69.10
20911;DHT22;10615;42.702;23.314;2022-10-31T01:18:57;14.20;69.10
20911;DHT22;10615;42.702;23.314;2022-10-31T01:19:58;14.20;69.20
20911;DHT22;10615;42.702;23.314;2022-10-31T01:21:08;14.20;69.20
20911;DHT22;10615;42.702;23.314;2022-10-31T01:22:09;14.20;69.40
20911;DHT22;10615;42.702;23.314;2022-10-31T01:23:10;14.10;69.40
20911;DHT22;10615;42.702;23.314;2022-10-31T01:24:10;14.20;69.50
20911;DHT22;10615;42.702;23.314;2022-10-31T01:25:11;14.20;69.50
20911;DHT22;10615;42.702;23.314;2022-10-31T01:26:15;14.20;69.40
20911;DHT22;10615;42.702;23.314;2022-10-31T01:27:16;14.20;69.40
20911;DHT22;10615;42.702;23.314;2022-10-31T01:28:16;14.20;69.40
20911;DHT22;10615;42.702;23.314;2022-10-31T01:29:17;14.20;69.40
20911;DHT22;10615;42.702;23.314;2022-10-31T01:30:17;14.30;69.50
20911;DHT22;10615;42.702;23.314;2022-10-31T01:31:20;14.30;69.50
20911;DHT22;10615;42.702;23.314;2022-10-31T01:32:21;14.30;69.40
20911;DHT22;10615;42.702;23.314;2022-10-31T01:33:21;14.30;69.40
20911;DHT22;10615;42.702;23.314;2022-10-31T01:34:22;14.30;69.50
20911;DHT22;10615;42.702;23.314;2022-10-31T01:35:22;14.30;69.50
20911;DHT22;10615;42.702;23.314;2022-10-31T01:36:32;14.30;69.40
20911;DHT22;10615;42.702;23.314;2022-10-31T01:37:33;14.40;69.30
20911;DHT22;10615;42.702;23.314;2022-10-31T01:38:34;14.40;69.20
20911;DHT22;10615;42.702;23.314;2022-10-31T01:39:34;14.40;69.20
20911;DHT22;10615;42.702;23.314;2022-10-31T01:40:35;14.40;69.30
20911;DHT22;10615;42.702;23.314;2022-10-31T01:41:38;14.40;69.20
20911;DHT22;10615;42.702;23.314;2022-10-31T01:42:39;14.50;69.20
20911;DHT22;10615;42.702;23.314;2022-10-31T01:44:54;14.50;69.20
20911;DHT22;10615;42.702;23.314;2022-10-31T01:45:54;14.50;69.00
20911;DHT22;10615;42.702;23.314;2022-10-31T01:47:11;14.50;68.90
20911;DHT22;10615;42.702;23.314;2022-10-31T01:48:15;14.50;68.90
20911;DHT22;10615;42.702;23.314;2022-10-31T01:50:34;14.40;68.90
20911;DHT22;10615;42.702;23.314;2022-10-31T01:51:39;14.30;69.10
20911;DHT22;10615;42.702;23.314;2022-10-31T01:52:45;14.20;69.40
20911;DHT22;10615;42.702;23.314;2022-10-31T01:53:47;14.10;69.70
20911;DHT22;10615;42.702;23.314;2022-10-31T01:55:59;14.00;70.40
20911;DHT22;10615;42.702;23.314;2022-10-31T01:57:00;13.90;70.60
20911;DHT22;10615;42.702;23.314;2022-10-31T01:58:06;13.90;70.70
20911;DHT22;10615;42.702;23.314;2022-10-31T01:59:09;13.90;70.80
20911;DHT22;10615;42.702;23.314;2022-10-31T02:00:11;13.80;70.80
20911;DHT22;10615;42.702;23.314;2022-10-31T02:01:14;13.80;70.80
20911;DHT22;10615;42.702;23.314;2022-10-31T02:02:17;13.80;70.70
20911;DHT22;10615;42.702;23.314;2022-10-31T02:03:19;13.80;70.90
20911;DHT22;10615;42.702;23.314;2022-10-31T02:04:21;13.80;70.80
20911;DHT22;10615;42.702;23.314;2022-10-31T02:05:25;13.80;70.80
20911;DHT22;10615;42.702;23.314;2022-10-31T02:06:47;13.80;70.90
20911;DHT22;10615;42.702;23.314;2022-10-31T02:07:57;13.70;71.00
20911;DHT22;10615;42.702;23.314;2022-10-31T02:08:59;13.70;71.10
20911;DHT22;10615;42.702;23.314;2022-10-31T02:10:02;13.70;71.30
20911;DHT22;10615;42.702;23.314;2022-10-31T02:11:03;13.70;71.30
20911;DHT22;10615;42.702;23.314;2022-10-31T02:12:04;13.70;71.40
20911;DHT22;10615;42.702;23.314;2022-10-31T02:13:07;13.70;71.50
20911;DHT22;10615;42.702;23.314;2022-10-31T02:14:08;13.70;71.50
20911;DHT22;10615;42.702;23.314;2022-10-31T02:15:09;13.80;71.40
20911;DHT22;10615;42.702;23.314;2022-10-31T02:16:10;13.80;71.30
20911;DHT22;10615;42.702;23.314;2022-10-31T02:17:10;13.90;71.30
20911;DHT22;10615;42.702;23.314;2022-10-31T02:18:11;13.90;71.30
20911;DHT22;10615;42.702;23.314;2022-10-31T02:19:18;13.90;71.20
20911;DHT22;10615;42.702;23.314;2022-10-31T02:20:22;13.90;71.00
20911;DHT22;10615;42.702;23.314;2022-10-31T02:24:40;13.80;71.00
20911;DHT22;10615;42.702;23.314;2022-10-31T02:27:34;13.80;71.40
20911;DHT22;10615;42.702;23.314;2022-10-31T02:32:09;13.80;71.30
20911;DHT22;10615;42.702;23.314;2022-10-31T02:33:35;13.80;71.30
20911;DHT22;10615;42.702;23.314;2022-10-31T02:34:51;13.80;71.50
20911;DHT22;10615;42.702;23.314;2022-10-31T02:36:10;13.80;71.70
20911;DHT22;10615;42.702;23.314;2022-10-31T02:37:16;13.70;71.90
20911;DHT22;10615;42.702;23.314;2022-10-31T02:40:10;13.70;72.10
20911;DHT22;10615;42.702;23.314;2022-10-31T02:42:59;13.60;72.20
20911;DHT22;10615;42.702;23.314;2022-10-31T02:44:09;13.70;72.30
20911;DHT22;10615;42.702;23.314;2022-10-31T02:46:34;13.70;72.30
20911;DHT22;10615;42.702;23.314;2022-10-31T02:47:37;13.70;72.10
20911;DHT22;10615;42.702;23.314;2022-10-31T02:48:39;13.70;72.00
20911;DHT22;10615;42.702;23.314;2022-10-31T02:49:54;13.70;72.10
20911;DHT22;10615;42.702;23.314;2022-10-31T02:51:00;13.60;72.20
20911;DHT22;10615;42.702;23.314;2022-10-31T02:52:01;13.50;72.30
20911;DHT22;10615;42.702;23.314;2022-10-31T02:53:02;13.50;72.50
20911;DHT22;10615;42.702;23.314;2022-10-31T02:54:03;13.50;72.60
20911;DHT22;10615;42.702;23.314;2022-10-31T02:56:30;13.30;73.00
20911;DHT22;10615;42.702;23.314;2022-10-31T02:57:35;13.20;73.30
20911;DHT22;10615;42.702;23.314;2022-10-31T02:58:40;13.20;73.60
20911;DHT22;10615;42.702;23.314;2022-10-31T02:59:49;13.20;73.90
20911;DHT22;10615;42.702;23.314;2022-10-31T03:06:20;13.40;73.90
20911;DHT22;10615;42.702;23.314;2022-10-31T03:08:45;13.40;73.70
20911;DHT22;10615;42.702;23.314;2022-10-31T03:10:55;13.40;73.40
20911;DHT22;10615;42.702;23.314;2022-10-31T03:13:31;13.40;73.60
20911;DHT22;10615;42.702;23.314;2022-10-31T03:14:45;13.40;73.60
20911;DHT22;10615;42.702;23.314;2022-10-31T03:15:55;13.40;73.60
20911;DHT22;10615;42.702;23.314;2022-10-31T03:17:05;13.40;73.40
20911;DHT22;10615;42.702;23.314;2022-10-31T03:18:12;13.40;74.30
20911;DHT22;10615;42.702;23.314;2022-10-31T03:19:21;13.40;73.40
20911;DHT22;10615;42.702;23.314;2022-10-31T03:21:11;13.40;73.50
20911;DHT22;10615;42.702;23.314;2022-10-31T03:23:18;13.40;73.60
20911;DHT22;10615;42.702;23.314;2022-10-31T03:24:23;13.40;73.60
20911;DHT22;10615;42.702;23.314;2022-10-31T03:25:26;13.40;73.70
20911;DHT22;10615;42.702;23.314;2022-10-31T03:26:27;13.40;73.70
20911;DHT22;10615;42.702;23.314;2022-10-31T03:27:32;13.40;73.70
20911;DHT22;10615;42.702;23.314;2022-10-31T03:29:07;13.40;73.70
20911;DHT22;10615;42.702;23.314;2022-10-31T03:30:09;13.50;73.80
20911;DHT22;10615;42.702;23.314;2022-10-31T03:31:12;13.50;73.70
20911;DHT22;10615;42.702;23.314;2022-10-31T03:32:19;13.50;73.70
20911;DHT22;10615;42.702;23.314;2022-10-31T03:33:26;13.50;73.70
20911;DHT22;10615;42.702;23.314;2022-10-31T03:34:30;13.60;73.80
20911;DHT22;10615;42.702;23.314;2022-10-31T03:35:33;13.40;73.70
20911;DHT22;10615;42.702;23.314;2022-10-31T03:36:38;13.40;73.70
20911;DHT22;10615;42.702;23.314;2022-10-31T03:37:40;13.40;73.70
20911;DHT22;10615;42.702;23.314;2022-10-31T03:38:43;13.40;73.90
20911;DHT22;10615;42.702;23.314;2022-10-31T03:39:48;13.40;74.00
20911;DHT22;10615;42.702;23.314;2022-10-31T03:40:51;13.40;74.10
20911;DHT22;10615;42.702;23.314;2022-10-31T03:42:05;13.40;74.20
20911;DHT22;10615;42.702;23.314;2022-10-31T03:43:10;13.40;74.30
20911;DHT22;10615;42.702;23.314;2022-10-31T03:44:17;13.30;74.40
20911;DHT22;10615;42.702;23.314;2022-10-31T03:45:28;13.30;74.40
20911;DHT22;10615;42.702;23.314;2022-10-31T03:46:30;13.30;74.50
20911;DHT22;10615;42.702;23.314;2022-10-31T03:47:31;13.30;74.60
20911;DHT22;10615;42.702;23.314;2022-10-31T03:48:32;13.30;74.70
20911;DHT22;10615;42.702;23.314;2022-10-31T03:49:34;13.20;74.70
20911;DHT22;10615;42.702;23.314;2022-10-31T03:53:55;13.20;75.30
20911;DHT22;10615;42.702;23.314;2022-10-31T03:54:57;13.20;75.30
20911;DHT22;10615;42.702;23.314;2022-10-31T03:56:29;13.10;75.30
20911;DHT22;10615;42.702;23.314;2022-10-31T03:57:41;13.10;75.60
20911;DHT22;10615;42.702;23.314;2022-10-31T03:58:54;13.00;75.60
20911;DHT22;10615;42.702;23.314;2022-10-31T04:00:11;13.00;75.80
20911;DHT22;10615;42.702;23.314;2022-10-31T04:01:16;13.00;75.90
20911;DHT22;10615;42.702;23.314;2022-10-31T04:02:21;13.00;76.00
20911;DHT22;10615;42.702;23.314;2022-10-31T04:03:26;13.00;76.10
20911;DHT22;10615;42.702;23.314;2022-10-31T04:04:29;13.00;76.30
20911;DHT22;10615;42.702;23.314;2022-10-31T04:05:31;13.00;76.50
20911;DHT22;10615;42.702;23.314;2022-10-31T04:06:33;13.00;76.60
20911;DHT22;10615;42.702;23.314;2022-10-31T04:07:37;13.00;76.60
20911;DHT22;10615;42.702;23.314;2022-10-31T04:08:45;13.00;76.60
20911;DHT22;10615;42.702;23.314;2022-10-31T04:09:50;13.00;76.70
20911;DHT22;10615;42.702;23.314;2022-10-31T04:10:52;13.00;76.80
20911;DHT22;10615;42.702;23.314;2022-10-31T04:11:56;13.00;76.80
20911;DHT22;10615;42.702;23.314;2022-10-31T04:13:04;13.00;77.00
20911;DHT22;10615;42.702;23.314;2022-10-31T04:14:07;13.00;76.90
20911;DHT22;10615;42.702;23.314;2022-10-31T04:15:10;13.00;76.90
20911;DHT22;10615;42.702;23.314;2022-10-31T04:16:11;13.10;76.90
20911;DHT22;10615;42.702;23.314;2022-10-31T04:17:16;13.10;76.90
20911;DHT22;10615;42.702;23.314;2022-10-31T04:18:18;13.10;76.90
20911;DHT22;10615;42.702;23.314;2022-10-31T04:19:18;13.10;76.90
20911;DHT22;10615;42.702;23.314;2022-10-31T04:20:33;13.10;76.90
20911;DHT22;10615;42.702;23.314;2022-10-31T04:21:34;13.20;76.90
20911;DHT22;10615;42.702;23.314;2022-10-31T04:22:34;13.10;76.80
20911;DHT22;10615;42.702;23.314;2022-10-31T04:23:36;13.10;76.80
20911;DHT22;10615;42.702;23.314;2022-10-31T04:24:38;13.20;76.90
20911;DHT22;10615;42.702;23.314;2022-10-31T04:25:40;13.20;76.90
20911;DHT22;10615;42.702;23.314;2022-10-31T04:26:40;13.20;76.90
20911;DHT22;10615;42.702;23.314;2022-10-31T04:27:41;13.20;76.80
20911;DHT22;10615;42.702;23.314;2022-10-31T04:28:41;13.20;76.80
20911;DHT22;10615;42.702;23.314;2022-10-31T04:29:42;13.20;76.90
20911;DHT22;10615;42.702;23.314;2022-10-31T04:30:43;13.20;76.80
20911;DHT22;10615;42.702;23.314;2022-10-31T04:31:43;13.20;77.00
20911;DHT22;10615;42.702;23.314;2022-10-31T04:32:44;13.20;77.10
20911;DHT22;10615;42.702;23.314;2022-10-31T04:33:45;13.20;77.10
20911;DHT22;10615;42.702;23.314;2022-10-31T04:34:46;13.20;77.10
20911;DHT22;10615;42.702;23.314;2022-10-31T04:35:46;13.20;77.10
20911;DHT22;10615;42.702;23.314;2022-10-31T04:36:47;13.20;77.10
20911;DHT22;10615;42.702;23.314;2022-10-31T04:37:48;13.20;77.10
20911;DHT22;10615;42.702;23.314;2022-10-31T04:38:48;13.20;77.10
20911;DHT22;10615;42.702;23.314;2022-10-31T04:39:49;13.20;77.10
20911;DHT22;10615;42.702;23.314;2022-10-31T04:40:50;13.20;77.30
20911;DHT22;10615;42.702;23.314;2022-10-31T04:41:50;13.20;77.30
20911;DHT22;10615;42.702;23.314;2022-10-31T04:42:51;13.20;77.40
20911;DHT22;10615;42.702;23.314;2022-10-31T04:43:52;13.20;77.50
20911;DHT22;10615;42.702;23.314;2022-10-31T04:44:52;13.20;77.50
20911;DHT22;10615;42.702;23.314;2022-10-31T04:45:53;13.20;77.50
20911;DHT22;10615;42.702;23.314;2022-10-31T04:46:53;13.20;77.50
20911;DHT22;10615;42.702;23.314;2022-10-31T04:47:54;13.20;77.50
20911;DHT22;10615;42.702;23.314;2022-10-31T04:48:55;13.20;77.60
20911;DHT22;10615;42.702;23.314;2022-10-31T04:49:55;13.20;77.60
20911;DHT22;10615;42.702;23.314;2022-10-31T04:51:00;13.20;77.60
20911;DHT22;10615;42.702;23.314;2022-10-31T04:53:20;13.20;77.60
20911;DHT22;10615;42.702;23.314;2022-10-31T04:54:21;13.20;77.60
20911;DHT22;10615;42.702;23.314;2022-10-31T04:55:21;13.20;77.50
20911;DHT22;10615;42.702;23.314;2022-10-31T04:56:22;13.30;77.70
20911;DHT22;10615;42.702;23.314;2022-10-31T04:57:22;13.20;77.60
20911;DHT22;10615;42.702;23.314;2022-10-31T04:58:23;13.20;77.60
20911;DHT22;10615;42.702;23.314;2022-10-31T04:59:24;13.30;77.80
20911;DHT22;10615;42.702;23.314;2022-10-31T05:00:24;13.30;77.80
20911;DHT22;10615;42.702;23.314;2022-10-31T05:01:25;13.20;77.70
20911;DHT22;10615;42.702;23.314;2022-10-31T05:02:26;13.20;77.80
20911;DHT22;10615;42.702;23.314;2022-10-31T05:03:27;13.20;77.90
20911;DHT22;10615;42.702;23.314;2022-10-31T05:04:27;13.20;77.80
20911;DHT22;10615;42.702;23.314;2022-10-31T05:05:29;13.20;77.90
20911;DHT22;10615;42.702;23.314;2022-10-31T05:06:30;13.30;77.90
20911;DHT22;10615;42.702;23.314;2022-10-31T05:07:31;13.30;77.90
20911;DHT22;10615;42.702;23.314;2022-10-31T05:08:32;13.30;77.90
20911;DHT22;10615;42.702;23.314;2022-10-31T05:09:32;13.40;77.90
20911;DHT22;10615;42.702;23.314;2022-10-31T05:10:33;13.40;77.80
20911;DHT22;10615;42.702;23.314;2022-10-31T05:11:33;13.50;77.70
20911;DHT22;10615;42.702;23.314;2022-10-31T05:12:34;13.60;77.70
20911;DHT22;10615;42.702;23.314;2022-10-31T05:13:35;13.70;77.40
20911;DHT22;10615;42.702;23.314;2022-10-31T05:14:35;13.90;77.30
20911;DHT22;10615;42.702;23.314;2022-10-31T05:15:36;14.20;76.90
20911;DHT22;10615;42.702;23.314;2022-10-31T05:16:37;14.40;76.20
20911;DHT22;10615;42.702;23.314;2022-10-31T05:17:37;14.70;75.50
20911;DHT22;10615;42.702;23.314;2022-10-31T05:18:38;15.00;74.80
20911;DHT22;10615;42.702;23.314;2022-10-31T05:19:38;15.30;76.90
20911;DHT22;10615;42.702;23.314;2022-10-31T05:20:39;15.60;73.00
20911;DHT22;10615;42.702;23.314;2022-10-31T05:21:40;15.90;72.00
20911;DHT22;10615;42.702;23.314;2022-10-31T05:22:51;16.00;70.90
20911;DHT22;10615;42.702;23.314;2022-10-31T05:23:52;16.00;70.00
20911;DHT22;10615;42.702;23.314;2022-10-31T05:24:52;15.90;69.30
20911;DHT22;10615;42.702;23.314;2022-10-31T05:25:53;15.70;69.10
20911;DHT22;10615;42.702;23.314;2022-10-31T05:26:54;15.60;69.20
20911;DHT22;10615;42.702;23.314;2022-10-31T05:27:55;15.40;70.20
20911;DHT22;10615;42.702;23.314;2022-10-31T05:28:56;15.30;69.70
20911;DHT22;10615;42.702;23.314;2022-10-31T05:29:57;15.20;70.00
20911;DHT22;10615;42.702;23.314;2022-10-31T05:30:57;15.10;70.30
20911;DHT22;10615;42.702;23.314;2022-10-31T05:31:58;15.00;70.50
20911;DHT22;10615;42.702;23.314;2022-10-31T05:32:59;14.90;70.80
20911;DHT22;10615;42.702;23.314;2022-10-31T05:34:00;14.80;71.00
20911;DHT22;10615;42.702;23.314;2022-10-31T05:35:01;14.70;71.20
20911;DHT22;10615;42.702;23.314;2022-10-31T05:36:01;14.50;71.50
20911;DHT22;10615;42.702;23.314;2022-10-31T05:37:02;14.40;71.80
20911;DHT22;10615;42.702;23.314;2022-10-31T05:38:03;14.30;72.10
20911;DHT22;10615;42.702;23.314;2022-10-31T05:39:04;14.10;72.30
20911;DHT22;10615;42.702;23.314;2022-10-31T05:40:07;14.00;72.70
20911;DHT22;10615;42.702;23.314;2022-10-31T05:41:08;13.90;73.30
20911;DHT22;10615;42.702;23.314;2022-10-31T05:42:09;13.90;73.80
20911;DHT22;10615;42.702;23.314;2022-10-31T05:43:10;13.90;74.10
20911;DHT22;10615;42.702;23.314;2022-10-31T05:44:11;14.00;74.20
20911;DHT22;10615;42.702;23.314;2022-10-31T05:45:14;14.30;74.20
20911;DHT22;10615;42.702;23.314;2022-10-31T05:46:15;14.90;73.70
20911;DHT22;10615;42.702;23.314;2022-10-31T05:47:16;15.60;72.70
20911;DHT22;10615;42.702;23.314;2022-10-31T05:48:16;16.50;71.20
20911;DHT22;10615;42.702;23.314;2022-10-31T05:49:17;17.30;69.20
20911;DHT22;10615;42.702;23.314;2022-10-31T05:50:18;18.00;66.90
20911;DHT22;10615;42.702;23.314;2022-10-31T05:51:19;18.80;64.70
20911;DHT22;10615;42.702;23.314;2022-10-31T05:52:20;19.50;62.70
20911;DHT22;10615;42.702;23.314;2022-10-31T05:53:21;20.10;60.60
20911;DHT22;10615;42.702;23.314;2022-10-31T05:54:21;20.70;58.80
20911;DHT22;10615;42.702;23.314;2022-10-31T05:55:22;21.20;57.10
20911;DHT22;10615;42.702;23.314;2022-10-31T05:56:23;21.80;55.70
20911;DHT22;10615;42.702;23.314;2022-10-31T05:57:24;22.20;54.40
20911;DHT22;10615;42.702;23.314;2022-10-31T05:58:24;22.60;53.20
20911;DHT22;10615;42.702;23.314;2022-10-31T05:59:25;23.00;52.10
20911;DHT22;10615;42.702;23.314;2022-10-31T06:00:26;23.40;51.10
20911;DHT22;10615;42.702;23.314;2022-10-31T06:01:27;23.90;50.10
20911;DHT22;10615;42.702;23.314;2022-10-31T06:02:28;24.10;48.90
20911;DHT22;10615;42.702;23.314;2022-10-31T06:03:32;24.30;48.10
20911;DHT22;10615;42.702;23.314;2022-10-31T06:04:33;24.60;47.40
20911;DHT22;10615;42.702;23.314;2022-10-31T06:05:34;24.90;46.80
20911;DHT22;10615;42.702;23.314;2022-10-31T06:06:34;25.10;46.30
20911;DHT22;10615;42.702;23.314;2022-10-31T06:07:35;25.30;45.70
20911;DHT22;10615;42.702;23.314;2022-10-31T06:08:36;25.40;45.00
20911;DHT22;10615;42.702;23.314;2022-10-31T06:09:37;25.60;44.60
20911;DHT22;10615;42.702;23.314;2022-10-31T06:10:38;25.80;44.10
20911;DHT22;10615;42.702;23.314;2022-10-31T06:11:38;26.20;43.80
20911;DHT22;10615;42.702;23.314;2022-10-31T06:12:39;26.40;43.90
20911;DHT22;10615;42.702;23.314;2022-10-31T06:13:40;26.60;42.50
20911;DHT22;10615;42.702;23.314;2022-10-31T06:14:41;26.70;41.80
20911;DHT22;10615;42.702;23.314;2022-10-31T06:15:42;26.70;41.40
20911;DHT22;10615;42.702;23.314;2022-10-31T06:16:43;26.70;41.20
20911;DHT22;10615;42.702;23.314;2022-10-31T06:17:43;26.60;41.40
20911;DHT22;10615;42.702;23.314;2022-10-31T06:18:46;26.60;41.50
20911;DHT22;10615;42.702;23.314;2022-10-31T06:19:46;26.60;41.50
20911;DHT22;10615;42.702;23.314;2022-10-31T06:20:47;26.50;41.60
20911;DHT22;10615;42.702;23.314;2022-10-31T06:21:47;26.40;41.60
20911;DHT22;10615;42.702;23.314;2022-10-31T06:22:48;26.20;41.40
20911;DHT22;10615;42.702;23.314;2022-10-31T06:23:49;26.20;41.70
20911;DHT22;10615;42.702;23.314;2022-10-31T06:24:49;26.10;41.70
20911;DHT22;10615;42.702;23.314;2022-10-31T06:25:51;26.10;42.20
20911;DHT22;10615;42.702;23.314;2022-10-31T06:26:51;26.00;41.50
20911;DHT22;10615;42.702;23.314;2022-10-31T06:27:52;26.00;41.50
20911;DHT22;10615;42.702;23.314;2022-10-31T06:28:53;26.10;41.50
20911;DHT22;10615;42.702;23.314;2022-10-31T06:29:54;26.30;41.30
20911;DHT22;10615;42.702;23.314;2022-10-31T06:30:54;26.60;40.90
20911;DHT22;10615;42.702;23.314;2022-10-31T06:31:55;27.00;40.30
20911;DHT22;10615;42.702;23.314;2022-10-31T06:33:04;27.40;39.60
20911;DHT22;10615;42.702;23.314;2022-10-31T06:34:05;27.80;38.90
20911;DHT22;10615;42.702;23.314;2022-10-31T06:35:05;28.50;38.40
20911;DHT22;10615;42.702;23.314;2022-10-31T06:36:06;29.20;37.80
20911;DHT22;10615;42.702;23.314;2022-10-31T06:37:09;29.90;36.80
20911;DHT22;10615;42.702;23.314;2022-10-31T06:38:10;30.60;35.90
20911;DHT22;10615;42.702;23.314;2022-10-31T06:40:11;31.70;33.50
20911;DHT22;10615;42.702;23.314;2022-10-31T06:41:12;32.20;33.30
20911;DHT22;10615;42.702;23.314;2022-10-31T06:42:15;32.80;32.60
20911;DHT22;10615;42.702;23.314;2022-10-31T06:43:16;33.20;31.70
20911;DHT22;10615;42.702;23.314;2022-10-31T06:44:16;33.80;31.20
20911;DHT22;10615;42.702;23.314;2022-10-31T06:45:17;34.20;30.50
20911;DHT22;10615;42.702;23.314;2022-10-31T06:46:18;34.60;30.00
20911;DHT22;10615;42.702;23.314;2022-10-31T06:47:18;35.10;29.60
20911;DHT22;10615;42.702;23.314;2022-10-31T06:48:19;35.50;29.10
20911;DHT22;10615;42.702;23.314;2022-10-31T06:49:19;35.80;28.70
20911;DHT22;10615;42.702;23.314;2022-10-31T06:50:21;36.00;28.50
20911;DHT22;10615;42.702;23.314;2022-10-31T06:51:22;36.00;28.20
20911;DHT22;10615;42.702;23.314;2022-10-31T06:52:23;36.30;28.00
20911;DHT22;10615;42.702;23.314;2022-10-31T06:53:24;36.60;28.30
20911;DHT22;10615;42.702;23.314;2022-10-31T06:54:24;36.70;27.50
20911;DHT22;10615;42.702;23.314;2022-10-31T06:55:26;36.90;27.20
20911;DHT22;10615;42.702;23.314;2022-10-31T06:56:27;37.10;27.00
20911;DHT22;10615;42.702;23.314;2022-10-31T06:57:27;37.20;26.90
20911;DHT22;10615;42.702;23.314;2022-10-31T06:58:28;37.30;26.80
20911;DHT22;10615;42.702;23.314;2022-10-31T06:59:29;37.20;26.80
20911;DHT22;10615;42.702;23.314;2022-10-31T07:00:30;37.10;26.70
20911;DHT22;10615;42.702;23.314;2022-10-31T07:01:32;36.80;26.70
20911;DHT22;10615;42.702;23.314;2022-10-31T07:02:33;36.50;26.70
20911;DHT22;10615;42.702;23.314;2022-10-31T07:03:33;36.00;26.90
20911;DHT22;10615;42.702;23.314;2022-10-31T07:04:34;35.30;27.00